Latest Weather Observations for Adelaide Airport

IDS60901

Issued at 1:11 pm CST Wednesday 27 July 2016 (issued every 10 minutes, with the page automatically refreshed every 10 minutes)

About weather observations | Map of Adelaide area stations | Latest observations for Adelaide area | Other Formats
Station Details ID: 023034 Name: ADELAIDE AIRPORT Lat: -34.95 Lon: 138.52 Height: 2.0 m
Data from the previous 72 hours. | See also: Recent months at Adelaide Airport
Date/Time
CST
Temp
°C
App
Temp
°C
Dew
Point
°C
Rel
Hum
%
Delta-T
°C
Wind Press
QNH
hPa
Press
MSL
hPa
Rain since
9am
mm
Dir  Spd
km/h
Gust
km/h
Spd
kts
Gust
kts
27/01:00pm 13.4 7.0 5.2 57 3.8 WSW 28 33 15 18 1024.5 1024.5 0.0
27/12:30pm 13.3 6.7 6.1 61 3.4 WSW 30 35 16 19 1024.6 1024.6 0.0
27/12:00pm 13.4 7.1 5.5 59 3.7 SW 28 32 15 17 1024.5 1024.5 0.0
27/11:30am 13.1 7.4 4.8 57 3.8 SW 24 30 13 16 1024.2 1024.2 0.0
27/11:00am 13.2 7.6 5.5 59 3.6 SW 24 32 13 17 1023.9 1023.9 0.0
27/10:30am 12.3 5.9 5.4 63 3.2 SW 28 37 15 20 1024.0 1024.0 0.0
27/10:00am 12.0 6.1 6.0 66 2.8 SW 26 33 14 18 1023.3 1023.3 0.0
27/09:30am 12.0 6.9 6.0 66 2.8 SW 22 32 12 17 1022.7 1022.7 0.0
27/09:00am 11.9 6.3 5.6 65 2.9 SSW 24 33 13 18 1022.5 1022.5 13.4
27/08:30am 11.9 7.1 5.4 64 3.0 SW 20 28 11 15 1021.8 1021.8 13.4
27/08:00am 11.6 6.7 5.3 65 2.9 SSW 20 30 11 16 1021.3 1021.3 13.4
27/07:30am 11.7 6.1 5.6 66 2.8 SSW 24 35 13 19 1020.6 1020.6 13.4
27/07:00am 11.4 4.9 4.8 64 3.0 SSW 28 37 15 20 1020.1 1020.1 13.4
27/06:30am 11.6 5.2 5.3 65 2.9 SW 28 39 15 21 1019.5 1019.5 13.4
27/06:00am 11.7 5.3 5.1 64 3.0 SW 28 39 15 21 1019.0 1019.0 13.4
27/05:30am 11.8 4.9 4.8 62 3.2 SW 30 39 16 21 1018.3 1018.3 13.4
27/05:00am 11.4 4.5 6.5 72 2.3 SW 32 46 17 25 1017.8 1017.8 13.4
27/04:30am 11.5 4.1 6.6 72 2.3 SW 35 48 19 26 1017.0 1017.0 13.4
27/04:00am 11.8 4.9 7.2 73 2.2 SW 33 48 18 26 1016.6 1016.6 13.4
27/03:30am 11.8 5.0 7.0 72 2.3 SW 32 41 17 22 1016.2 1016.2 13.4
27/03:00am 11.9 5.2 8.2 78 1.8 SW 33 41 18 22 1016.1 1016.1 13.4
27/02:30am 12.2 5.7 8.1 76 2.0 SW 32 43 17 23 1015.9 1015.9 13.4
27/02:00am 12.4 5.4 8.4 76 2.0 WSW 35 46 19 25 1015.1 1015.1 13.4
27/01:30am 12.2 6.8 8.1 76 2.0 WSW 26 32 14 17 1014.6 1014.6 13.4
27/01:00am 11.8 6.6 9.0 83 1.4 WSW 26 30 14 16 1014.2 1014.2 13.4
27/12:30am 11.8 5.6 7.9 77 1.9 WSW 30 41 16 22 1014.0 1014.0 13.4
27/12:00am 11.3 4.2 9.7 90 0.8 W 37 52 20 28 1013.7 1013.7 13.2
 
Date/Time
CST
Temp
°C
App
Temp
°C
Dew
Point
°C
Rel
Hum
%
Delta-T
°C
Wind Press
QNH
hPa
Press
MSL
hPa
Rain since
9am
mm
Dir  Spd
km/h
Gust
km/h
Spd
kts
Gust
kts
26/11:30pm 12.1 6.1 8.7 80 1.7 W 30 39 16 21 1013.4 1013.4 12.8
26/11:00pm 12.1 6.9 8.9 81 1.6 W 26 35 14 19 1012.9 1012.9 12.8
26/10:30pm 11.8 5.3 9.0 83 1.4 W 33 41 18 22 1012.4 1012.4 12.8
26/10:00pm 11.4 5.2 9.2 86 1.1 W 32 41 17 22 1012.3 1012.3 12.8
26/09:30pm 11.4 4.5 9.0 85 1.2 W 35 52 19 28 1012.0 1012.0 12.6
26/09:29pm 11.4 4.5 9.0 85 1.2 W 35 52 19 28 1012.0 1012.0 12.6
26/09:00pm 11.5 4.4 8.2 80 1.6 WSW 35 57 19 31 1011.5 1011.5 12.4
26/08:30pm 12.6 5.9 7.2 69 2.6 WSW 32 39 17 21 1011.0 1011.0 12.2
26/08:00pm 12.2 7.5 9.4 83 1.4 W 24 30 13 16 1010.7 1010.7 12.2
26/07:30pm 12.0 6.5 9.0 82 1.5 W 28 37 15 20 1009.9 1009.9 12.2
26/07:00pm 11.8 5.3 9.0 83 1.4 W 33 41 18 22 1009.3 1009.3 12.2
26/06:40pm 11.8 4.9 8.8 82 1.5 W 35 54 19 29 1009.0 1009.0 12.2
26/06:30pm 11.7 4.2 9.3 85 1.2 W 39 52 21 28 1009.1 1009.1 12.0
26/06:14pm 11.3 3.8 9.3 87 1.0 W 39 54 21 29 1008.6 1008.6 12.0
26/06:00pm 11.4 4.5 10.2 92 0.6 WNW 37 59 20 32 1008.4 1008.4 12.0
26/05:48pm 11.6 3.6 10.6 94 0.5 WNW 43 69 23 37 1008.4 1008.4 11.8
26/05:41pm 11.8 4.5 10.2 90 0.8 W 39 69 21 37 1008.4 1008.4 11.4
26/05:30pm 11.6 4.4 10.4 92 0.6 WNW 39 61 21 33 1008.4 1008.4 7.0
26/05:26pm 11.5 3.3 10.3 92 0.6 NW 44 61 24 33 1008.4 1008.4 4.6
26/05:14pm 11.7 3.5 9.7 87 1.0 NW 43 57 23 31 1007.3 1007.3 2.6
26/05:07pm 11.8 4.3 9.6 86 1.1 NNW 39 52 21 28 1007.3 1007.3 2.2
26/05:00pm 11.8 4.3 9.4 85 1.2 NNW 39 54 21 29 1007.3 1007.3 2.0
26/04:47pm 11.6 4.4 9.2 85 1.2 NNW 37 56 20 30 1007.6 1007.6 1.6
26/04:30pm 11.5 4.7 9.3 86 1.1 NNW 35 52 19 28 1007.8 1007.8 1.4
26/04:23pm 11.4 4.9 9.0 85 1.2 NNW 33 52 18 28 1008.2 1008.2 1.4
26/04:00pm 11.3 5.0 8.9 85 1.2 NNW 32 43 17 23 1009.0 1009.0 1.4
26/03:30pm 11.2 4.0 9.0 86 1.1 NNW 37 50 20 27 1009.6 1009.6 1.4
26/03:05pm 11.2 4.6 8.4 83 1.4 NW 33 52 18 28 1010.2 1010.2 1.2
26/03:00pm 11.2 4.8 8.6 84 1.3 NNW 32 41 17 22 1010.2 1010.2 1.0
26/02:30pm 11.4 4.9 8.1 80 1.6 NNW 32 41 17 22 1010.6 1010.6 0.4
26/02:00pm 11.3 4.1 7.8 79 1.7 NNW 35 48 19 26 1011.0 1011.0 0.2
26/01:30pm 11.5 4.3 7.6 77 1.9 NNW 35 46 19 25 1011.9 1011.9 0.2
26/01:11pm 11.5 4.0 6.4 71 2.4 NNW 35 57 19 31 1012.4 1012.4 0.0
26/01:00pm 11.9 4.7 5.9 66 2.8 NNW 33 44 18 24 1012.6 1012.6 0.0
26/12:30pm 11.9 5.9 6.9 71 2.4 N 28 37 15 20 1013.2 1013.2 0.0
26/12:00pm 11.7 4.2 6.2 69 2.6 NNW 35 46 19 25 1014.0 1014.0 0.0
26/11:52am 11.6 4.7 6.5 71 2.4 NNW 32 50 17 27 1014.2 1014.2 0.0
26/11:30am 11.7 4.7 6.9 72 2.3 NNW 33 46 18 25 1014.3 1014.3 0.0
26/11:00am 11.6 4.6 6.8 72 2.3 NNW 33 44 18 24 1014.8 1014.8 0.0
26/10:30am 11.5 4.6 6.4 71 2.4 NNW 32 39 17 21 1015.3 1015.3 0.0
26/10:00am 11.7 4.6 5.7 66 2.8 NW 32 41 17 22 1015.3 1015.3 0.0
26/09:30am 11.8 5.6 6.0 67 2.7 NW 28 37 15 20 1015.3 1015.3 0.0
26/09:00am 10.9 5.5 6.2 73 2.2 NW 24 32 13 17 1015.6 1015.6 8.2
26/08:30am 10.9 6.2 6.2 73 2.2 NNW 20 26 11 14 1015.3 1015.3 8.2
26/08:00am 10.3 6.2 6.2 76 1.9 NW 17 20 9 11 1015.6 1015.6 8.2
26/07:30am 10.3 4.5 6.2 76 1.9 W 26 33 14 18 1015.6 1015.6 8.2
26/07:00am 10.4 4.9 6.1 75 2.0 WNW 24 30 13 16 1015.8 1015.8 8.2
26/06:30am 10.3 4.7 5.5 72 2.2 WNW 24 30 13 16 1015.7 1015.7 8.2
26/06:00am 10.2 4.3 5.6 73 2.1 W 26 35 14 19 1015.6 1015.6 8.2
26/05:30am 10.5 5.6 5.0 69 2.5 W 20 28 11 15 1015.5 1015.5 8.2
26/05:00am 10.4 4.0 5.1 69 2.4 W 28 35 15 19 1015.5 1015.5 8.2
26/04:30am 10.5 4.4 4.7 67 2.6 W 26 35 14 19 1015.5 1015.5 8.2
26/04:00am 10.3 5.0 5.2 70 2.3 WSW 22 30 12 16 1015.6 1015.6 8.2
26/03:30am 10.9 4.3 4.4 64 2.9 W 28 35 15 19 1015.9 1015.9 8.2
26/03:00am 10.7 3.8 4.7 66 2.7 W 30 39 16 21 1016.1 1016.1 8.2
26/02:30am 10.7 5.2 4.2 64 2.9 W 22 33 12 18 1016.2 1016.2 8.2
26/02:00am 10.3 4.8 5.7 73 2.1 WSW 24 28 13 15 1016.6 1016.6 8.2
26/01:30am 10.8 5.4 4.3 64 2.9 W 22 30 12 16 1016.6 1016.6 8.2
26/01:00am 10.7 4.8 3.9 63 3.0 W 24 32 13 17 1016.8 1016.8 8.2
26/12:30am 10.8 4.5 3.8 62 3.1 W 26 33 14 18 1016.8 1016.8 8.2
26/12:00am 10.9 3.4 3.4 60 3.3 W 32 41 17 22 1016.8 1016.8 8.2
 
Date/Time
CST
Temp
°C
App
Temp
°C
Dew
Point
°C
Rel
Hum
%
Delta-T
°C
Wind Press
QNH
hPa
Press
MSL
hPa
Rain since
9am
mm
Dir  Spd
km/h
Gust
km/h
Spd
kts
Gust
kts
25/11:46pm 11.1 4.3 3.3 58 3.4 W 28 46 15 25 1016.8 1016.8 8.2
25/11:30pm 10.9 4.9 3.4 60 3.3 W 24 30 13 16 1016.8 1016.8 8.2
25/11:00pm 10.5 4.0 4.7 67 2.6 W 28 39 15 21 1016.9 1016.9 8.2
25/10:30pm 10.1 5.6 6.0 76 1.9 W 19 24 10 13 1016.8 1016.8 8.2
25/10:00pm 9.2 2.9 5.7 79 1.6 WSW 28 39 15 21 1016.8 1016.8 8.2
25/09:41pm 9.6 3.4 6.1 79 1.6 WSW 28 57 15 31 1017.1 1017.1 8.2
25/09:40pm 10.1 4.1 5.5 73 2.1 WSW 26 32 14 17 1017.1 1017.1 8.0
25/09:30pm 10.7 5.1 5.5 70 2.4 W 24 33 13 18 1016.8 1016.8 8.0
25/09:00pm 9.8 3.4 6.8 81 1.4 WSW 30 41 16 22 1016.8 1016.8 8.0
25/08:30pm 9.7 1.4 6.2 79 1.6 WSW 39 52 21 28 1016.8 1016.8 7.4
25/08:25pm 10.5 2.3 5.0 69 2.5 W 37 52 20 28 1016.6 1016.6 6.8
25/08:22pm 11.4 4.0 4.8 64 3.0 W 33 52 18 28 1016.4 1016.4 6.8
25/08:00pm 11.9 4.3 3.8 57 3.6 W 33 41 18 22 1016.0 1016.0 6.8
25/07:30pm 12.3 3.7 2.4 51 4.3 W 37 52 20 28 1015.8 1015.8 6.8
25/07:21pm 12.2 4.4 2.8 52 4.1 W 33 52 18 28 1015.7 1015.7 6.8
25/07:00pm 12.2 6.1 6.5 68 2.7 W 28 35 15 19 1015.4 1015.4 6.8
25/06:30pm 11.7 5.1 7.6 76 2.0 W 32 48 17 26 1015.0 1015.0 6.8
25/06:00pm 12.2 5.6 7.7 74 2.2 W 32 41 17 22 1014.4 1014.4 6.8
25/05:30pm 12.2 5.5 7.5 73 2.3 W 32 43 17 23 1014.0 1014.0 6.8
25/05:00pm 12.2 5.5 7.5 73 2.3 WSW 32 39 17 21 1013.7 1013.7 6.8
25/04:30pm 12.2 5.5 8.1 76 2.0 WSW 33 44 18 24 1013.3 1013.3 6.8
25/04:00pm 11.8 4.6 10.6 92 0.6 WSW 39 50 21 27 1013.0 1013.0 6.8
25/03:44pm 12.1 4.2 10.8 92 0.7 W 43 59 23 32 1012.6 1012.6 6.2
25/03:35pm 12.2 5.9 11.1 93 0.6 W 35 59 19 32 1012.3 1012.3 6.0
25/03:30pm 12.2 6.5 11.2 94 0.5 W 32 43 17 23 1012.3 1012.3 6.0
25/03:16pm 12.0 6.1 11.2 95 0.4 NW 33 44 18 24 1012.4 1012.4 3.4
25/03:07pm 12.2 5.2 11.1 93 0.6 NW 39 50 21 27 1012.0 1012.0 2.4
25/03:00pm 12.3 4.8 10.8 90 0.8 NNW 41 54 22 29 1011.7 1011.7 1.0
25/02:51pm 12.8 5.5 10.3 85 1.3 NNW 39 56 21 30 1011.6 1011.6 0.2
25/02:30pm 12.9 4.8 10.2 84 1.4 NW 43 54 23 29 1011.9 1011.9 0.2
25/02:14pm 13.2 6.4 10.5 84 1.4 NNW 37 50 20 27 1012.2 1012.2 0.2
25/02:00pm 12.5 6.4 10.6 88 1.0 NNW 33 43 18 23 1012.4 1012.4 0.2
25/01:30pm 12.7 5.7 9.8 82 1.5 NNW 37 56 20 30 1012.7 1012.7 0.0
25/01:25pm 12.6 5.2 9.9 83 1.4 NNW 39 50 21 27 1012.7 1012.7 0.0
25/01:00pm 13.0 6.7 9.0 77 2.0 NNW 32 43 17 23 1013.1 1013.1 0.0
25/12:30pm 12.7 5.8 8.7 76 2.0 NNW 35 50 19 27 1013.8 1013.8 0.0
25/12:00pm 12.4 5.5 8.8 79 1.8 NNW 35 52 19 28 1014.2 1014.2 0.0
25/11:30am 12.2 5.9 9.0 81 1.6 NNW 32 46 17 25 1014.6 1014.6 0.0
25/11:05am 12.1 5.8 8.9 81 1.6 NNW 32 54 17 29 1014.8 1014.8 0.0
25/11:00am 12.3 6.0 8.9 80 1.7 NNW 32 43 17 23 1014.8 1014.8 0.0
25/10:30am 12.0 5.0 8.3 78 1.8 NNW 35 46 19 25 1015.2 1015.2 0.0
25/10:00am 12.0 5.4 8.6 80 1.7 NNW 33 46 18 25 1015.2 1015.2 0.0
25/09:30am 12.3 5.9 8.5 77 1.9 NNW 32 41 17 22 1015.7 1015.7 0.0
25/09:00am 12.0 5.5 8.3 78 1.8 NW 32 39 17 21 1015.4 1015.4 7.6
25/08:30am 11.8 5.8 8.6 81 1.6 NW 30 39 16 21 1015.3 1015.3 7.6
25/08:00am 11.7 5.6 8.2 79 1.7 NW 30 37 16 20 1015.2 1015.2 7.6
25/07:30am 11.6 6.5 7.7 77 1.9 NW 24 30 13 16 1015.0 1015.0 7.6
25/07:00am 11.6 6.7 8.3 80 1.6 NW 24 30 13 16 1014.9 1014.9 7.6
25/06:30am 11.4 6.7 7.9 79 1.7 NW 22 28 12 15 1015.0 1015.0 7.6
25/06:00am 11.4 7.0 7.5 77 1.9 WNW 20 30 11 16 1015.0 1015.0 7.6
25/05:30am 11.1 6.0 7.8 80 1.6 WNW 24 30 13 16 1014.8 1014.8 7.6
25/05:00am 11.4 5.0 7.0 74 2.1 W 30 37 16 20 1014.6 1014.6 7.6
25/04:30am 11.1 5.0 6.7 74 2.1 W 28 35 15 19 1014.6 1014.6 7.6
25/04:00am 10.9 5.6 6.9 76 1.9 W 24 30 13 16 1014.7 1014.7 7.6
25/03:30am 10.8 5.3 7.5 80 1.6 W 26 33 14 18 1015.0 1015.0 7.6
25/03:00am 10.0 4.2 8.1 88 0.9 W 28 37 15 20 1014.8 1014.8 7.6
25/02:48am 9.9 4.0 7.6 85 1.1 W 28 54 15 29 1015.1 1015.1 7.4
25/02:30am 11.2 6.2 7.9 80 1.6 W 24 32 13 17 1014.9 1014.9 7.2
25/02:00am 11.8 4.7 5.3 64 3.0 WSW 32 43 17 23 1014.8 1014.8 7.2
25/01:30am 11.8 3.7 5.3 64 3.0 WSW 37 46 20 25 1014.7 1014.7 7.2
25/01:00am 11.4 3.8 7.7 78 1.8 WSW 37 52 20 28 1014.5 1014.5 7.2
25/12:53am 11.7 4.7 5.9 67 2.7 W 32 52 17 28 1014.4 1014.4 7.2
25/12:30am 10.9 4.1 7.1 77 1.8 W 32 44 17 24 1014.2 1014.2 7.2
25/12:03am 10.6 3.2 8.3 86 1.1 W 37 56 20 30 1014.0 1014.0 7.2
25/12:00am 10.5 2.4 8.5 87 1.0 W 41 56 22 30 1014.0 1014.0 7.2
 
Date/Time
CST
Temp
°C
App
Temp
°C
Dew
Point
°C
Rel
Hum
%
Delta-T
°C
Wind Press
QNH
hPa
Press
MSL
hPa
Rain since
9am
mm
Dir  Spd
km/h
Gust
km/h
Spd
kts
Gust
kts
24/11:47pm 10.8 4.3 8.3 84 1.2 W 32 41 17 22 1014.0 1014.0 6.6
24/11:30pm 10.0 2.8 7.7 86 1.1 W 35 52 19 28 1013.7 1013.7 6.2
24/11:19pm 10.4 3.6 7.9 84 1.2 W 33 59 18 32 1013.8 1013.8 6.0
24/11:00pm 10.1 1.3 7.4 83 1.3 WSW 43 63 23 34 1013.5 1013.5 5.4
24/10:53pm 10.2 1.5 7.9 86 1.1 W 43 63 23 34 1013.5 1013.5 5.0
24/10:50pm 10.7 3.4 7.4 80 1.6 W 35 57 19 31 1013.4 1013.4 4.8
24/10:30pm 10.0 1.9 7.0 81 1.4 WSW 39 59 21 32 1013.2 1013.2 4.8
24/10:18pm 10.3 0.8 6.7 78 1.7 WSW 46 67 25 36 1013.2 1013.2 4.2
24/10:00pm 11.7 3.0 6.2 69 2.6 W 41 54 22 29 1012.7 1012.7 4.2
24/09:31pm 11.9 2.7 5.4 64 3.0 W 43 61 23 33 1012.3 1012.3 4.2
24/09:30pm 11.9 3.1 5.7 66 2.9 W 41 52 22 28 1012.3 1012.3 4.2
24/09:00pm 11.9 3.6 5.9 66 2.8 W 39 52 21 28 1012.0 1012.0 4.2
24/08:35pm 11.9 3.8 6.9 71 2.4 W 39 57 21 31 1011.7 1011.7 4.2
24/08:30pm 11.9 3.8 6.9 71 2.4 W 39 50 21 27 1011.7 1011.7 4.2
24/08:27pm 11.8 3.3 7.0 72 2.3 W 41 59 22 32 1011.7 1011.7 4.2
24/08:00pm 11.8 2.0 7.0 72 2.3 W 48 63 26 34 1011.5 1011.5 4.2
24/07:42pm 11.9 2.9 7.1 72 2.3 W 44 63 24 34 1011.3 1011.3 4.2
24/07:30pm 11.9 2.2 7.3 73 2.2 W 48 61 26 33 1011.2 1011.2 4.2
24/07:22pm 11.9 3.4 7.1 72 2.3 W 41 61 22 33 1010.8 1010.8 4.2
24/07:00pm 11.7 2.8 7.8 77 1.9 W 44 56 24 30 1010.4 1010.4 4.2
24/06:30pm 11.6 2.3 7.7 77 1.9 W 46 59 25 32 1009.8 1009.8 4.0
24/06:00pm 11.6 1.1 7.5 76 2.0 W 52 72 28 39 1009.4 1009.4 4.0
24/05:30pm 11.8 1.6 7.0 72 2.3 W 50 69 27 37 1008.9 1008.9 3.8
24/05:08pm 12.7 3.1 6.2 64 3.1 WNW 46 67 25 36 1008.5 1008.5 3.8
24/05:00pm 12.5 2.9 6.4 66 2.9 WNW 46 63 25 34 1008.5 1008.5 3.8
24/04:30pm 12.4 2.3 5.5 63 3.2 WNW 48 65 26 35 1008.3 1008.3 3.8
24/04:12pm 11.6 2.9 7.5 76 2.0 WNW 43 69 23 37 1008.3 1008.3 3.8
24/04:00pm 12.2 4.1 6.8 69 2.6 WNW 39 54 21 29 1008.1 1008.1 3.6
24/03:30pm 12.8 2.8 4.5 57 3.8 WNW 46 69 25 37 1008.0 1008.0 3.6
24/03:00pm 12.7 3.3 5.2 60 3.5 WNW 44 57 24 31 1007.9 1007.9 3.6
24/02:30pm 12.4 4.8 5.8 64 3.1 WNW 35 52 19 28 1008.0 1008.0 3.6
24/02:00pm 11.8 2.1 4.0 59 3.5 WNW 44 61 24 33 1008.1 1008.1 3.6
24/01:52pm 11.3 2.9 5.7 68 2.6 WNW 39 57 21 31 1008.2 1008.2 3.6
24/01:30pm 12.0 2.6 2.6 52 4.1 W 41 52 22 28 1007.8 1007.8 3.6
24/01:17pm 10.1 -1.4 4.3 67 2.6 W 54 74 29 40 1007.8 1007.8 3.6

Latest Capital City Observations: Canberra | Sydney | Melbourne | Brisbane | Adelaide | Perth | Hobart | Darwin

Other Formats:

Comma delimited format used in spreadsheet applications
http://www.bom.gov.au/fwo/IDS60901/IDS60901.94672.axf

JavaScript Object Notation format (JSON) in row-major order
http://www.bom.gov.au/fwo/IDS60901/IDS60901.94672.json